Time;durP1;ratioP1;P1;durP2;ratioP2;P2;SDS_P1;SDS_P2;PMS_P1;PMS_P2;Temp;Humidity;BMP_temperature;BMP_pressure;BME280_temperature;BME280_humidity;BME280_pressure;Samples;Min_cycle;Max_cycle;Signal;HPM_P1;HPM_P2
2023/04/20 00:02:02;;;;;;;;;;;;;;;;;;4996410;28;20423;-80
2023/04/20 00:04:28;;;;;;;;;;;;;;;;;;4992627;28;20045;-80
2023/04/20 00:06:55;;;;;;;;;;;;;;;;;;5024681;28;20438;-80
2023/04/20 00:09:21;;;;;;;;;;;;;;;;;;5014274;28;19910;-80
2023/04/20 00:11:46;;;;;;;;;;;;;;;;;;4997535;28;19914;-80
2023/04/20 00:14:11;;;;;;;;;;;;;;;;;;4992175;28;19909;-80
2023/04/20 00:16:37;;;;;;;;;;;;;;;;;;4993316;28;21130;-80
2023/04/20 00:19:02;;;;;;;;;;;;;;;;;;4992113;28;19957;-80
2023/04/20 00:21:27;;;;;;;;;;;;;;;;;;4993422;28;19967;-80
2023/04/20 00:23:52;;;;;;;;;;;;;;;;;;4991662;28;19910;-79
2023/04/20 00:26:18;;;;;;;;;;;;;;;;;;4992127;28;20393;-80
2023/04/20 00:28:47;;;;;;;;;;;;;;;;;;4991288;28;20008;-79
2023/04/20 00:31:13;;;;;;;;;;;;;;;;;;4991442;28;19996;-79
2023/04/20 00:33:38;;;;;;;;;;;;;;;;;;4994159;28;19913;-79
2023/04/20 00:36:05;;;;;;;;;;;;;;;;;;4992970;28;19925;-79
2023/04/20 00:38:30;;;;;;;;;;;;;;;;;;4994105;28;20377;-80
2023/04/20 00:40:58;;;;;;;;;;;;;;;;;;4992902;28;20388;-79
2023/04/20 00:43:23;;;;;;;;;;;;;;;;;;4993736;28;19960;-79
2023/04/20 00:45:51;;;;;;;;;;;;;;;;;;4991116;28;19940;-80
2023/04/20 00:48:16;;;;;;;;;;;;;;;;;;4996913;28;20377;-81
2023/04/20 00:50:41;;;;;;;;;;;;;;;;;;5002332;28;19913;-79
2023/04/20 00:53:06;;;;;;;;;;;;;;;;;;4999352;28;19910;-80
2023/04/20 00:55:32;;;;;;;;;;;;;;;;;;4986559;28;19913;-80
2023/04/20 00:57:57;;;;;;;;;;;;;;;;;;4993648;28;19910;-80
2023/04/20 01:00:23;;;;;;;;;;;;;;;;;;5004653;28;19939;-80
2023/04/20 01:02:48;;;;;;;;;;;;;;;;;;5005834;28;20281;-80
2023/04/20 01:05:14;;;;;;;;;;;;;;;;;;5002476;28;19913;-79
2023/04/20 01:07:39;;;;;;;;;;;;;;;;;;5000390;28;20016;-80
2023/04/20 01:10:05;;;;;;;;;;;;;;;;;;5006485;28;19913;-80
2023/04/20 01:12:30;;;;;;;;;;;;;;;;;;5005447;28;19910;-80
2023/04/20 01:14:55;;;;;;;;;;;;;;;;;;5005554;28;19917;-80
2023/04/20 01:17:21;;;;;;;;;;;;;;;;;;5020249;28;19953;-79
2023/04/20 01:19:47;;;;;;;;;;;;;;;;;;4994988;28;20467;-79
2023/04/20 01:22:13;;;;;;;;;;;;;;;;;;5004723;28;19917;-80
2023/04/20 01:24:38;;;;;;;;;;;;;;;;;;4996143;28;20428;-80
2023/04/20 01:27:03;;;;;;;;;;;;;;;;;;5005682;28;19913;-80
2023/04/20 01:29:29;;;;;;;;;;;;;;;;;;4994448;28;19925;-80
2023/04/20 01:31:54;;;;;;;;;;;;;;;;;;5025378;28;20436;-80
2023/04/20 01:34:20;;;;;;;;;;;;;;;;;;4994623;28;20282;-79
2023/04/20 01:36:45;;;;;;;;;;;;;;;;;;4995549;28;20296;-80
2023/04/20 01:39:10;;;;;;;;;;;;;;;;;;4997774;28;19921;-80
2023/04/20 01:41:35;;;;;;;;;;;;;;;;;;5005464;28;19909;-80
2023/04/20 01:44:01;;;;;;;;;;;;;;;;;;5007627;28;19914;-80
2023/04/20 01:46:26;;;;;;;;;;;;;;;;;;5027172;28;19964;-80
2023/04/20 01:48:51;;;;;;;;;;;;;;;;;;5011504;28;20012;-79
2023/04/20 01:51:17;;;;;;;;;;;;;;;;;;4995832;28;19909;-79
2023/04/20 01:53:42;;;;;;;;;;;;;;;;;;5012026;28;19914;-80
2023/04/20 01:56:07;;;;;;;;;;;;;;;;;;5005311;28;19909;-80
2023/04/20 01:58:33;;;;;;;;;;;;;;;;;;5026745;28;20323;-80
2023/04/20 02:00:58;;;;;;;;;;;;;;;;;;5010647;28;19917;-79
2023/04/20 02:03:25;;;;;;;;;;;;;;;;;;5006936;28;20389;-80
2023/04/20 02:05:52;;;;;;;;;;;;;;;;;;4995060;28;20063;-80
2023/04/20 02:08:17;;;;;;;;;;;;;;;;;;4995252;28;20396;-80
2023/04/20 02:10:42;;;;;;;;;;;;;;;;;;5027028;28;20258;-79
2023/04/20 02:13:07;;;;;;;;;;;;;;;;;;4995466;28;19952;-79
2023/04/20 02:15:33;;;;;;;;;;;;;;;;;;4992195;28;19917;-79
2023/04/20 02:17:58;;;;;;;;;;;;;;;;;;4995137;28;19917;-79
2023/04/20 02:20:24;;;;;;;;;;;;;;;;;;4995665;28;19910;-79
2023/04/20 02:22:49;;;;;;;;;;;;;;;;;;4994926;28;19920;-80
2023/04/20 02:25:14;;;;;;;;;;;;;;;;;;4995407;28;19909;-79
2023/04/20 02:27:40;;;;;;;;;;;;;;;;;;4995518;28;20384;-79
2023/04/20 02:30:05;;;;;;;;;;;;;;;;;;4994789;28;19910;-80
2023/04/20 02:32:31;;;;;;;;;;;;;;;;;;4994881;28;19913;-79
2023/04/20 02:34:57;;;;;;;;;;;;;;;;;;4995493;28;20076;-79
2023/04/20 02:37:24;;;;;;;;;;;;;;;;;;5006665;28;19917;-79
2023/04/20 02:39:50;;;;;;;;;;;;;;;;;;5027130;28;20303;-79
2023/04/20 02:42:16;;;;;;;;;;;;;;;;;;4995994;28;19940;-80
2023/04/20 02:44:42;;;;;;;;;;;;;;;;;;4994638;28;19913;-79
2023/04/20 02:47:07;;;;;;;;;;;;;;;;;;4991971;28;20409;-80
2023/04/20 02:49:33;;;;;;;;;;;;;;;;;;4994424;28;20316;-79
2023/04/20 02:51:58;;;;;;;;;;;;;;;;;;4993489;28;19917;-79
2023/04/20 02:54:24;;;;;;;;;;;;;;;;;;4994533;28;19913;-79
2023/04/20 02:56:49;;;;;;;;;;;;;;;;;;4993266;28;19914;-79
2023/04/20 02:59:15;;;;;;;;;;;;;;;;;;5026207;28;19910;-80
2023/04/20 03:01:53;;;;;;;;;;;;;;;;;;5022718;28;20381;-80
2023/04/20 03:04:20;;;;;;;;;;;;;;;;;;4977166;28;20360;-80
2023/04/20 03:07:04;;;;;;;;;;;;;;;;;;4989946;28;20444;-79
2023/04/20 03:09:32;;;;;;;;;;;;;;;;;;4992971;28;19928;-79
2023/04/20 03:12:04;;;;;;;;;;;;;;;;;;4994783;28;20269;-81
2023/04/20 03:15:01;;;;;;;;;;;;;;;;;;4993403;28;19917;-80
2023/04/20 03:17:38;;;;;;;;;;;;;;;;;;4993632;28;19960;-80
2023/04/20 03:20:04;;;;;;;;;;;;;;;;;;5020472;28;20373;-80
2023/04/20 03:22:29;;;;;;;;;;;;;;;;;;4992949;28;19917;-79
2023/04/20 03:24:57;;;;;;;;;;;;;;;;;;5019763;28;20228;-80
2023/04/20 03:27:46;;;;;;;;;;;;;;;;;;4992610;28;20304;-80
2023/04/20 03:30:12;;;;;;;;;;;;;;;;;;5025106;28;20300;-81
2023/04/20 03:32:37;;;;;;;;;;;;;;;;;;5025400;28;19936;-80
2023/04/20 03:35:03;;;;;;;;;;;;;;;;;;5024976;28;20028;-81
2023/04/20 03:37:28;;;;;;;;;;;;;;;;;;5001508;28;19919;-81
2023/04/20 03:39:54;;;;;;;;;;;;;;;;;;5026120;28;19964;-81
2023/04/20 03:42:19;;;;;;;;;;;;;;;;;;5025282;28;19964;-81
2023/04/20 03:44:46;;;;;;;;;;;;;;;;;;4992603;28;19964;-80
2023/04/20 03:47:12;;;;;;;;;;;;;;;;;;4991376;28;19941;-81
2023/04/20 03:49:38;;;;;;;;;;;;;;;;;;4992139;28;20285;-81
2023/04/20 03:52:03;;;;;;;;;;;;;;;;;;4994629;28;19972;-80
2023/04/20 03:54:28;;;;;;;;;;;;;;;;;;5025243;28;20027;-81
2023/04/20 03:56:54;;;;;;;;;;;;;;;;;;5022671;28;20000;-79
2023/04/20 03:59:20;;;;;;;;;;;;;;;;;;5025571;28;19917;-79
2023/04/20 04:01:47;;;;;;;;;;;;;;;;;;4995379;28;19917;-79
2023/04/20 04:04:12;;;;;;;;;;;;;;;;;;5023738;28;19964;-79
2023/04/20 04:06:37;;;;;;;;;;;;;;;;;;4991745;28;19964;-80
2023/04/20 04:09:03;;;;;;;;;;;;;;;;;;5024463;28;20020;-80
2023/04/20 04:11:29;;;;;;;;;;;;;;;;;;4993132;28;19913;-80
2023/04/20 04:13:55;;;;;;;;;;;;;;;;;;5008347;28;19914;-80
2023/04/20 04:16:20;;;;;;;;;;;;;;;;;;4991879;28;19955;-80
2023/04/20 04:18:47;;;;;;;;;;;;;;;;;;5010066;28;20023;-81
2023/04/20 04:21:12;;;;;;;;;;;;;;;;;;4994859;28;19931;-80
2023/04/20 04:23:42;;;;;;;;;;;;;;;;;;5023025;28;19914;-80
2023/04/20 04:26:12;;;;;;;;;;;;;;;;;;5025945;28;19916;-79
2023/04/20 04:28:41;;;;;;;;;;;;;;;;;;5026301;28;19940;-80
2023/04/20 04:31:12;;;;;;;;;;;;;;;;;;5008549;28;19932;-80
2023/04/20 04:33:37;;;;;;;;;;;;;;;;;;5025302;28;19914;-79
2023/04/20 04:36:03;;;;;;;;;;;;;;;;;;4977891;28;19922;-80
2023/04/20 04:38:32;;;;;;;;;;;;;;;;;;5030887;28;20000;-80
2023/04/20 04:40:57;;;;;;;;;;;;;;;;;;5029468;28;19910;-82
2023/04/20 04:43:23;;;;;;;;;;;;;;;;;;4991789;28;19919;-81
2023/04/20 04:46:05;;;;;;;;;;;;;;;;;;5028491;28;19910;-82
2023/04/20 04:48:31;;;;;;;;;;;;;;;;;;5028246;28;19921;-80
2023/04/20 04:50:56;;;;;;;;;;;;;;;;;;4995516;28;19952;-79
2023/04/20 04:53:21;;;;;;;;;;;;;;;;;;4994554;28;19924;-80
2023/04/20 04:55:47;;;;;;;;;;;;;;;;;;4996446;28;19910;-80
2023/04/20 04:58:12;;;;;;;;;;;;;;;;;;5000705;28;19913;-79
2023/04/20 05:00:39;;;;;;;;;;;;;;;;;;5004589;28;19914;-80
2023/04/20 05:03:04;;;;;;;;;;;;;;;;;;4999545;28;19972;-81
2023/04/20 05:05:30;;;;;;;;;;;;;;;;;;5025160;28;19910;-80
2023/04/20 05:07:55;;;;;;;;;;;;;;;;;;4995572;28;19917;-82
2023/04/20 05:10:20;;;;;;;;;;;;;;;;;;5030447;28;20047;-79
2023/04/20 05:12:47;;;;;;;;;;;;;;;;;;4997639;28;19920;-80
2023/04/20 05:15:12;;;;;;;;;;;;;;;;;;4996179;28;20000;-81
2023/04/20 05:17:38;;;;;;;;;;;;;;;;;;4996369;28;20004;-81
2023/04/20 05:20:05;;;;;;;;;;;;;;;;;;5000131;28;20005;-81
2023/04/20 05:22:30;;;;;;;;;;;;;;;;;;4997618;28;20040;-80
2023/04/20 05:24:56;;;;;;;;;;;;;;;;;;4998364;28;19949;-81
2023/04/20 05:27:21;;;;;;;;;;;;;;;;;;4996115;28;20024;-82
2023/04/20 05:29:46;;;;;;;;;;;;;;;;;;4998980;28;19909;-80
2023/04/20 05:32:12;;;;;;;;;;;;;;;;;;4999074;28;19929;-79
2023/04/20 05:34:37;;;;;;;;;;;;;;;;;;5001446;28;19922;-83
2023/04/20 05:37:02;;;;;;;;;;;;;;;;;;4998959;28;20016;-82
2023/04/20 05:39:28;;;;;;;;;;;;;;;;;;5003644;28;19914;-82
2023/04/20 05:41:53;;;;;;;;;;;;;;;;;;4998203;28;19956;-82
2023/04/20 05:44:18;;;;;;;;;;;;;;;;;;4996932;28;19914;-81
2023/04/20 05:46:44;;;;;;;;;;;;;;;;;;4997778;28;19969;-80
2023/04/20 05:49:09;;;;;;;;;;;;;;;;;;4995631;28;19910;-80
2023/04/20 05:51:34;;;;;;;;;;;;;;;;;;4996011;28;19948;-81
2023/04/20 05:54:00;;;;;;;;;;;;;;;;;;4982055;28;20347;-82
2023/04/20 05:56:25;;;;;;;;;;;;;;;;;;4999774;28;20299;-81
2023/04/20 05:58:51;;;;;;;;;;;;;;;;;;5002680;28;20011;-80
2023/04/20 06:01:16;;;;;;;;;;;;;;;;;;4997793;28;19920;-81
2023/04/20 06:03:41;;;;;;;;;;;;;;;;;;4991674;28;20432;-80
2023/04/20 06:06:07;;;;;;;;;;;;;;;;;;4998560;28;19910;-80
2023/04/20 06:08:32;;;;;;;;;;;;;;;;;;4986123;28;19917;-80
2023/04/20 06:10:57;;;;;;;;;;;;;;;;;;4996867;28;19914;-79
2023/04/20 06:13:23;;;;;;;;;;;;;;;;;;4997975;28;19921;-80
2023/04/20 06:15:48;;;;;;;;;;;;;;;;;;4998448;28;19905;-81
2023/04/20 06:18:14;;;;;;;;;;;;;;;;;;4998975;28;19914;-81
2023/04/20 06:20:39;;;;;;;;;;;;;;;;;;4997394;28;19910;-82
2023/04/20 06:23:04;;;;;;;;;;;;;;;;;;4997361;28;19914;-81
2023/04/20 06:25:29;;;;;;;;;;;;;;;;;;4997941;28;19910;-81
2023/04/20 06:27:55;;;;;;;;;;;;;;;;;;5024135;28;19965;-81
2023/04/20 06:30:20;;;;;;;;;;;;;;;;;;4999020;28;20369;-81
2023/04/20 06:32:46;;;;;;;;;;;;;;;;;;4998615;28;19913;-80
2023/04/20 06:35:11;;;;;;;;;;;;;;;;;;5031715;28;19922;-81
2023/04/20 06:37:37;;;;;;;;;;;;;;;;;;5001086;28;19960;-81
2023/04/20 06:40:06;;;;;;;;;;;;;;;;;;5032487;28;19989;-80
2023/04/20 06:42:32;;;;;;;;;;;;;;;;;;5003634;28;19913;-81
2023/04/20 06:44:57;;;;;;;;;;;;;;;;;;5000191;28;19910;-81
2023/04/20 06:47:30;;;;;;;;;;;;;;;;;;5003123;28;19966;-80
2023/04/20 06:49:55;;;;;;;;;;;;;;;;;;5003406;28;19914;-82
2023/04/20 06:52:20;;;;;;;;;;;;;;;;;;5003017;28;19932;-80
2023/04/20 06:54:46;;;;;;;;;;;;;;;;;;5000148;28;20428;-81
2023/04/20 06:57:11;;;;;;;;;;;;;;;;;;5003141;28;20364;-80
2023/04/20 06:59:36;;;;;;;;;;;;;;;;;;5009772;28;20262;-80
2023/04/20 07:02:02;;;;;;;;;;;;;;;;;;5010683;28;19941;-81
2023/04/20 07:04:27;;;;;;;;;;;;;;;;;;5003531;28;20009;-81
2023/04/20 07:06:52;;;;;;;;;;;;;;;;;;5003508;28;19963;-80
2023/04/20 07:09:18;;;;;;;;;;;;;;;;;;5002860;28;19913;-81
2023/04/20 07:11:43;;;;;;;;;;;;;;;;;;5006208;28;19909;-82
2023/04/20 07:14:08;;;;;;;;;;;;;;;;;;5003006;28;20344;-80
2023/04/20 07:16:34;;;;;;;;;;;;;;;;;;5004771;28;20339;-81
2023/04/20 07:19:24;;;;;;;;;;;;;;;;;;5004410;28;19980;-81
2023/04/20 07:21:50;;;;;;;;;;;;;;;;;;5002864;28;19913;-82
2023/04/20 07:24:15;;;;;;;;;;;;;;;;;;5002090;28;19914;-80
2023/04/20 07:26:40;;;;;;;;;;;;;;;;;;4995409;28;19919;-81
2023/04/20 07:29:06;;;;;;;;;;;;;;;;;;5005664;28;19914;-82
2023/04/20 07:31:31;;;;;;;;;;;;;;;;;;5004534;28;19917;-83
2023/04/20 07:33:56;;;;;;;;;;;;;;;;;;5004533;28;19920;-82
2023/04/20 07:36:21;;;;;;;;;;;;;;;;;;5004915;28;19926;-81
2023/04/20 07:38:47;;;;;;;;;;;;;;;;;;4996849;28;19914;-78
2023/04/20 07:41:12;;;;;;;;;;;;;;;;;;4999435;28;19973;-81
2023/04/20 07:43:38;;;;;;;;;;;;;;;;;;5000340;28;19960;-81
2023/04/20 07:46:03;;;;;;;;;;;;;;;;;;5022737;28;19916;-81
2023/04/20 07:48:28;;;;;;;;;;;;;;;;;;5029166;28;19921;-82
2023/04/20 07:50:54;;;;;;;;;;;;;;;;;;5001550;28;19910;-81
2023/04/20 07:53:19;;;;;;;;;;;;;;;;;;5000890;28;20011;-81
2023/04/20 07:55:44;;;;;;;;;;;;;;;;;;5003509;28;19999;-81
2023/04/20 07:58:10;;;;;;;;;;;;;;;;;;4999872;28;20479;-80
2023/04/20 08:00:36;;;;;;;;;;;;;;;;;;4996418;28;19956;-81
2023/04/20 08:03:01;;;;;;;;;;;;;;;;;;4999582;28;19917;-81
2023/04/20 08:05:26;;;;;;;;;;;;;;;;;;5002395;28;19917;-81
2023/04/20 08:07:52;;;;;;;;;;;;;;;;;;4999286;28;19917;-81
2023/04/20 08:10:17;;;;;;;;;;;;;;;;;;5030432;28;20281;-80
2023/04/20 08:12:42;;;;;;;;;;;;;;;;;;4998186;28;20008;-81
2023/04/20 08:15:08;;;;;;;;;;;;;;;;;;4993650;28;19953;-81
2023/04/20 08:17:33;;;;;;;;;;;;;;;;;;4998209;28;19913;-81
2023/04/20 08:19:58;;;;;;;;;;;;;;;;;;4993585;28;19914;-80
2023/04/20 08:22:26;;;;;;;;;;;;;;;;;;4993936;28;19913;-81
2023/04/20 08:24:51;;;;;;;;;;;;;;;;;;4994044;28;19913;-81
2023/04/20 08:27:16;;;;;;;;;;;;;;;;;;4994119;28;20402;-80
2023/04/20 08:29:42;;;;;;;;;;;;;;;;;;4997810;28;19917;-81
2023/04/20 08:32:11;;;;;;;;;;;;;;;;;;4998894;28;19918;-82
2023/04/20 08:34:36;;;;;;;;;;;;;;;;;;4994756;28;19910;-82
2023/04/20 08:37:02;;;;;;;;;;;;;;;;;;4998476;28;19924;-82
2023/04/20 08:39:29;;;;;;;;;;;;;;;;;;4994477;28;19910;-80
2023/04/20 08:41:54;;;;;;;;;;;;;;;;;;4993188;28;19920;-80
2023/04/20 08:44:19;;;;;;;;;;;;;;;;;;4994174;28;19910;-82
2023/04/20 08:46:45;;;;;;;;;;;;;;;;;;4993379;28;19917;-83
2023/04/20 08:49:10;;;;;;;;;;;;;;;;;;4993343;28;20300;-81
2023/04/20 08:51:35;;;;;;;;;;;;;;;;;;4992727;28;19965;-82
2023/04/20 08:54:02;;;;;;;;;;;;;;;;;;4991846;28;20420;-82
2023/04/20 08:56:27;;;;;;;;;;;;;;;;;;4993054;28;19914;-82
2023/04/20 08:58:53;;;;;;;;;;;;;;;;;;4997163;28;19917;-82
2023/04/20 09:01:18;;;;;;;;;;;;;;;;;;5000792;28;19964;-81
2023/04/20 09:03:44;;;;;;;;;;;;;;;;;;5002754;28;19913;-81
2023/04/20 09:06:09;;;;;;;;;;;;;;;;;;4993588;28;19972;-82
2023/04/20 09:08:35;;;;;;;;;;;;;;;;;;5004658;28;19913;-81
2023/04/20 09:11:00;;;;;;;;;;;;;;;;;;5000486;28;19963;-82
2023/04/20 09:13:25;;;;;;;;;;;;;;;;;;4999142;28;19913;-81
2023/04/20 09:15:50;;;;;;;;;;;;;;;;;;4998861;28;20383;-80
2023/04/20 09:18:16;;;;;;;;;;;;;;;;;;4997534;28;19910;-83
2023/04/20 09:20:41;;;;;;;;;;;;;;;;;;4992809;28;20001;-80
2023/04/20 09:23:07;;;;;;;;;;;;;;;;;;5004568;28;20293;-81
2023/04/20 09:25:32;;;;;;;;;;;;;;;;;;5003708;28;19921;-81
2023/04/20 09:27:57;;;;;;;;;;;;;;;;;;5003476;28;19967;-80
2023/04/20 09:30:23;;;;;;;;;;;;;;;;;;5028336;28;19936;-81
2023/04/20 09:32:48;;;;;;;;;;;;;;;;;;4996733;28;19920;-82
2023/04/20 09:35:14;;;;;;;;;;;;;;;;;;4996868;28;19921;-81
2023/04/20 09:37:39;;;;;;;;;;;;;;;;;;4994769;28;19914;-82
2023/04/20 09:40:05;;;;;;;;;;;;;;;;;;5004788;28;19913;-80
2023/04/20 09:42:30;;;;;;;;;;;;;;;;;;5010824;28;20391;-81
2023/04/20 09:44:56;;;;;;;;;;;;;;;;;;5033371;28;19936;-81
2023/04/20 09:47:21;;;;;;;;;;;;;;;;;;5010027;28;20340;-81
2023/04/20 09:49:46;;;;;;;;;;;;;;;;;;5032830;28;19913;-81
2023/04/20 09:52:11;;;;;;;;;;;;;;;;;;5010150;28;20507;-81
2023/04/20 09:54:37;;;;;;;;;;;;;;;;;;5013003;28;19913;-81
2023/04/20 09:57:03;;;;;;;;;;;;;;;;;;4993340;28;20019;-82
2023/04/20 09:59:28;;;;;;;;;;;;;;;;;;5013394;28;19917;-81
2023/04/20 10:01:54;;;;;;;;;;;;;;;;;;5010523;28;19936;-81
2023/04/20 10:04:19;;;;;;;;;;;;;;;;;;5014892;28;19913;-81
2023/04/20 10:06:44;;;;;;;;;;;;;;;;;;5012143;28;19913;-81
2023/04/20 10:09:10;;;;;;;;;;;;;;;;;;5027614;28;20059;-81
2023/04/20 10:11:35;;;;;;;;;;;;;;;;;;4998913;28;19990;-81
2023/04/20 10:14:01;;;;;;;;;;;;;;;;;;5004893;28;19976;-81
2023/04/20 10:16:26;;;;;;;;;;;;;;;;;;5007817;28;19972;-81
2023/04/20 10:18:51;;;;;;;;;;;;;;;;;;5027716;28;19920;-82
2023/04/20 10:21:17;;;;;;;;;;;;;;;;;;4996327;28;19910;-82
2023/04/20 10:23:43;;;;;;;;;;;;;;;;;;5019964;28;20289;-81
2023/04/20 10:26:08;;;;;;;;;;;;;;;;;;5016069;28;20016;-81
2023/04/20 10:28:33;;;;;;;;;;;;;;;;;;4987616;28;20258;-81
2023/04/20 10:30:59;;;;;;;;;;;;;;;;;;5028797;28;19913;-82
2023/04/20 10:33:24;;;;;;;;;;;;;;;;;;5012416;28;19910;-80
2023/04/20 10:35:50;;;;;;;;;;;;;;;;;;4996968;28;19922;-83
2023/04/20 10:38:15;;;;;;;;;;;;;;;;;;4997309;28;19914;-82
2023/04/20 10:40:40;;;;;;;;;;;;;;;;;;5027961;28;20004;-83
2023/04/20 10:43:06;;;;;;;;;;;;;;;;;;4997370;28;19940;-82
2023/04/20 10:45:31;;;;;;;;;;;;;;;;;;4995562;28;19909;-83
2023/04/20 10:47:56;;;;;;;;;;;;;;;;;;4988206;28;19924;-83
2023/04/20 10:50:21;;;;;;;;;;;;;;;;;;4994874;28;19956;-83
2023/04/20 10:52:48;;;;;;;;;;;;;;;;;;4996060;28;20370;-82
2023/04/20 10:55:13;;;;;;;;;;;;;;;;;;4995378;28;19917;-82
2023/04/20 10:57:39;;;;;;;;;;;;;;;;;;4994959;28;20016;-82
2023/04/20 11:00:05;;;;;;;;;;;;;;;;;;4994800;28;19953;-82
2023/04/20 11:02:30;;;;;;;;;;;;;;;;;;4994573;28;19917;-81
2023/04/20 11:04:59;;;;;;;;;;;;;;;;;;4994904;28;20277;-80
2023/04/20 11:07:25;;;;;;;;;;;;;;;;;;4988732;28;19918;-81
2023/04/20 11:09:50;;;;;;;;;;;;;;;;;;4992772;28;19910;-82
2023/04/20 11:12:16;;;;;;;;;;;;;;;;;;4995491;28;20444;-82
2023/04/20 11:14:42;;;;;;;;;;;;;;;;;;4995683;28;19910;-82
2023/04/20 11:17:07;;;;;;;;;;;;;;;;;;4996615;28;20284;-82
2023/04/20 11:19:32;;;;;;;;;;;;;;;;;;4996047;28;20284;-81
2023/04/20 11:21:58;;;;;;;;;;;;;;;;;;4996588;28;19920;-82
2023/04/20 11:24:23;;;;;;;;;;;;;;;;;;4996725;28;19916;-83
2023/04/20 11:26:49;;;;;;;;;;;;;;;;;;4994677;28;19921;-82
2023/04/20 11:29:14;;;;;;;;;;;;;;;;;;4992936;28;20008;-82
2023/04/20 11:31:39;;;;;;;;;;;;;;;;;;4995177;28;20415;-83
2023/04/20 11:34:07;;;;;;;;;;;;;;;;;;4993742;28;20008;-83
2023/04/20 11:36:33;;;;;;;;;;;;;;;;;;4995313;28;19937;-81
2023/04/20 11:38:58;;;;;;;;;;;;;;;;;;4998582;28;19909;-81
2023/04/20 11:41:24;;;;;;;;;;;;;;;;;;4994497;28;20497;-83
2023/04/20 11:43:50;;;;;;;;;;;;;;;;;;4992071;28;19910;-83
2023/04/20 11:46:15;;;;;;;;;;;;;;;;;;4993886;28;19914;-82
2023/04/20 11:48:41;;;;;;;;;;;;;;;;;;4996474;28;20383;-82
2023/04/20 11:51:06;;;;;;;;;;;;;;;;;;4999095;28;19914;-82
2023/04/20 11:53:31;;;;;;;;;;;;;;;;;;5001523;28;19954;-82
2023/04/20 11:55:57;;;;;;;;;;;;;;;;;;5001922;28;20374;-82
2023/04/20 11:58:22;;;;;;;;;;;;;;;;;;5002167;28;19910;-82
2023/04/20 12:00:47;;;;;;;;;;;;;;;;;;5006383;28;19984;-81
2023/04/20 12:03:12;;;;;;;;;;;;;;;;;;4996285;28;19913;-81
2023/04/20 12:05:38;;;;;;;;;;;;;;;;;;5025367;28;19913;-81
2023/04/20 12:08:03;;;;;;;;;;;;;;;;;;4996101;28;20327;-82
2023/04/20 12:10:29;;;;;;;;;;;;;;;;;;4998768;28;19917;-82
2023/04/20 12:12:55;;;;;;;;;;;;;;;;;;4998334;28;19924;-81
2023/04/20 12:15:21;;;;;;;;;;;;;;;;;;5029993;28;19920;-82
2023/04/20 12:17:46;;;;;;;;;;;;;;;;;;4994431;28;19909;-82
2023/04/20 12:20:11;;;;;;;;;;;;;;;;;;5027550;28;19914;-83
2023/04/20 12:22:37;;;;;;;;;;;;;;;;;;4997161;28;19914;-81
2023/04/20 12:25:03;;;;;;;;;;;;;;;;;;5004214;28;19910;-82
2023/04/20 12:27:28;;;;;;;;;;;;;;;;;;4995630;28;20296;-83
2023/04/20 12:29:53;;;;;;;;;;;;;;;;;;4995459;28;19909;-81
2023/04/20 12:32:19;;;;;;;;;;;;;;;;;;4994438;28;19925;-81
2023/04/20 12:34:44;;;;;;;;;;;;;;;;;;4995023;28;19945;-82
2023/04/20 12:37:09;;;;;;;;;;;;;;;;;;4995005;28;19918;-83
2023/04/20 12:39:35;;;;;;;;;;;;;;;;;;4995443;28;19910;-82
2023/04/20 12:42:01;;;;;;;;;;;;;;;;;;4995658;28;19913;-84
2023/04/20 12:44:26;;;;;;;;;;;;;;;;;;5026962;28;19910;-83
2023/04/20 12:46:51;;;;;;;;;;;;;;;;;;4996272;28;19925;-83
2023/04/20 12:49:17;;;;;;;;;;;;;;;;;;5026117;28;19939;-82
2023/04/20 12:51:42;;;;;;;;;;;;;;;;;;5029110;28;19941;-83
2023/04/20 12:54:07;;;;;;;;;;;;;;;;;;5028681;28;19910;-81
2023/04/20 12:56:33;;;;;;;;;;;;;;;;;;4995342;28;19949;-81
2023/04/20 12:58:58;;;;;;;;;;;;;;;;;;4993531;28;19983;-82
2023/04/20 13:01:24;;;;;;;;;;;;;;;;;;5001301;28;19937;-82
2023/04/20 13:03:49;;;;;;;;;;;;;;;;;;5014729;28;20016;-81
2023/04/20 13:06:14;;;;;;;;;;;;;;;;;;5002145;28;20359;-82
2023/04/20 13:08:40;;;;;;;;;;;;;;;;;;5005109;28;19972;-83
2023/04/20 13:11:05;;;;;;;;;;;;;;;;;;5005314;28;19921;-83
2023/04/20 13:13:31;;;;;;;;;;;;;;;;;;5010428;28;19916;-83
2023/04/20 13:15:56;;;;;;;;;;;;;;;;;;5004905;28;19914;-81
2023/04/20 13:18:23;;;;;;;;;;;;;;;;;;5005219;28;19964;-81
2023/04/20 13:20:48;;;;;;;;;;;;;;;;;;5012841;28;19913;-82
2023/04/20 13:23:13;;;;;;;;;;;;;;;;;;5011757;28;19916;-82
2023/04/20 13:25:39;;;;;;;;;;;;;;;;;;5011230;28;19913;-82
2023/04/20 13:28:05;;;;;;;;;;;;;;;;;;5013342;28;19913;-82
2023/04/20 13:30:30;;;;;;;;;;;;;;;;;;5004092;28;19989;-82
2023/04/20 13:32:55;;;;;;;;;;;;;;;;;;5014028;28;20376;-82
2023/04/20 13:35:21;;;;;;;;;;;;;;;;;;5008943;28;19925;-82
2023/04/20 13:37:46;;;;;;;;;;;;;;;;;;5008738;28;19917;-82
2023/04/20 13:40:11;;;;;;;;;;;;;;;;;;5033130;28;20364;-81
2023/04/20 13:42:37;;;;;;;;;;;;;;;;;;5001435;28;20427;-82
2023/04/20 13:45:02;;;;;;;;;;;;;;;;;;5000985;28;19914;-83
2023/04/20 13:47:27;;;;;;;;;;;;;;;;;;5002164;28;19914;-84
2023/04/20 13:49:53;;;;;;;;;;;;;;;;;;5003080;28;19921;-83
2023/04/20 13:52:18;;;;;;;;;;;;;;;;;;5003832;28;19934;-82
2023/04/20 13:54:43;;;;;;;;;;;;;;;;;;5005374;28;19913;-83
2023/04/20 13:57:08;;;;;;;;;;;;;;;;;;5003329;28;19937;-82
2023/04/20 13:59:34;;;;;;;;;;;;;;;;;;5004658;28;20269;-82
2023/04/20 14:01:59;;;;;;;;;;;;;;;;;;5006310;28;19949;-82
2023/04/20 14:04:25;;;;;;;;;;;;;;;;;;5002284;28;19914;-82
2023/04/20 14:06:51;;;;;;;;;;;;;;;;;;5002487;28;19925;-82
2023/04/20 14:09:16;;;;;;;;;;;;;;;;;;5003953;28;19920;-82
2023/04/20 14:11:42;;;;;;;;;;;;;;;;;;5003868;28;19909;-82
2023/04/20 14:14:07;;;;;;;;;;;;;;;;;;5002717;28;19914;-82
2023/04/20 14:16:33;;;;;;;;;;;;;;;;;;5005213;28;19952;-82
2023/04/20 14:18:58;;;;;;;;;;;;;;;;;;5004905;28;19922;-82
2023/04/20 14:21:23;;;;;;;;;;;;;;;;;;5006881;28;19910;-84
2023/04/20 14:23:52;;;;;;;;;;;;;;;;;;5006333;28;20301;-84
2023/04/20 14:26:17;;;;;;;;;;;;;;;;;;5004725;28;20024;-82
2023/04/20 14:28:44;;;;;;;;;;;;;;;;;;5030261;28;20061;-84
2023/04/20 14:31:10;;;;;;;;;;;;;;;;;;5011652;28;20336;-81
2023/04/20 14:33:35;;;;;;;;;;;;;;;;;;5038136;28;19945;-81
2023/04/20 14:36:00;;;;;;;;;;;;;;;;;;5004208;28;20284;-82
2023/04/20 14:38:26;;;;;;;;;;;;;;;;;;5003577;28;19964;-81
2023/04/20 14:40:51;;;;;;;;;;;;;;;;;;5004497;28;19910;-82
2023/04/20 14:43:17;;;;;;;;;;;;;;;;;;5002859;28;20298;-81
2023/04/20 14:45:44;;;;;;;;;;;;;;;;;;5001150;28;19916;-82
2023/04/20 14:48:09;;;;;;;;;;;;;;;;;;4993678;28;19922;-82
2023/04/20 14:50:35;;;;;;;;;;;;;;;;;;5000187;28;19910;-80
2023/04/20 14:53:00;;;;;;;;;;;;;;;;;;5003130;28;19913;-81
2023/04/20 14:55:26;;;;;;;;;;;;;;;;;;5004381;28;19932;-83
2023/04/20 14:57:51;;;;;;;;;;;;;;;;;;5002166;28;19913;-83
2023/04/20 15:00:16;;;;;;;;;;;;;;;;;;4985302;28;19909;-81
2023/04/20 15:02:42;;;;;;;;;;;;;;;;;;5001136;28;19925;-82
2023/04/20 15:05:07;;;;;;;;;;;;;;;;;;4996557;28;19913;-80
2023/04/20 15:07:32;;;;;;;;;;;;;;;;;;4993302;28;19918;-82
2023/04/20 15:09:58;;;;;;;;;;;;;;;;;;4999934;28;20347;-83
2023/04/20 15:12:23;;;;;;;;;;;;;;;;;;4996066;28;19952;-82
2023/04/20 15:14:48;;;;;;;;;;;;;;;;;;4997940;28;19914;-82
2023/04/20 15:17:14;;;;;;;;;;;;;;;;;;4997258;28;19921;-82
2023/04/20 15:19:44;;;;;;;;;;;;;;;;;;4994894;28;19916;-83
2023/04/20 15:22:10;;;;;;;;;;;;;;;;;;4995942;28;20788;-84
2023/04/20 15:24:35;;;;;;;;;;;;;;;;;;4999699;28;19913;-84
2023/04/20 15:27:01;;;;;;;;;;;;;;;;;;4999358;28;19917;-85
2023/04/20 15:29:26;;;;;;;;;;;;;;;;;;5000725;28;19910;-84
2023/04/20 15:31:51;;;;;;;;;;;;;;;;;;4996427;28;19913;-84
2023/04/20 15:34:17;;;;;;;;;;;;;;;;;;4995022;28;19909;-83
2023/04/20 15:36:42;;;;;;;;;;;;;;;;;;4996520;28;19976;-84
2023/04/20 15:39:08;;;;;;;;;;;;;;;;;;4994647;28;19909;-83
2023/04/20 15:41:33;;;;;;;;;;;;;;;;;;4993745;28;19964;-83
2023/04/20 15:43:59;;;;;;;;;;;;;;;;;;4993294;28;19920;-83
2023/04/20 15:46:25;;;;;;;;;;;;;;;;;;4992686;28;19913;-84
2023/04/20 15:48:50;;;;;;;;;;;;;;;;;;5000434;28;19924;-84
2023/04/20 15:51:16;;;;;;;;;;;;;;;;;;4994856;28;19914;-83
2023/04/20 15:53:46;;;;;;;;;;;;;;;;;;4997002;28;19916;-84
2023/04/20 15:56:12;;;;;;;;;;;;;;;;;;4993938;28;20380;-85
2023/04/20 15:58:37;;;;;;;;;;;;;;;;;;4996778;28;20001;-83
2023/04/20 16:01:02;;;;;;;;;;;;;;;;;;4988602;28;19964;-84
2023/04/20 16:03:28;;;;;;;;;;;;;;;;;;4994503;28;20304;-84
2023/04/20 16:05:53;;;;;;;;;;;;;;;;;;4995716;28;19953;-84
2023/04/20 16:08:19;;;;;;;;;;;;;;;;;;4997677;28;19925;-84
2023/04/20 16:10:45;;;;;;;;;;;;;;;;;;4991177;28;20019;-84
2023/04/20 16:13:10;;;;;;;;;;;;;;;;;;4997099;28;19999;-85
2023/04/20 16:15:36;;;;;;;;;;;;;;;;;;5021332;28;19913;-85
2023/04/20 16:18:03;;;;;;;;;;;;;;;;;;4999716;28;19948;-84
2023/04/20 16:20:28;;;;;;;;;;;;;;;;;;5019997;28;20019;-85
2023/04/20 16:22:54;;;;;;;;;;;;;;;;;;4999338;28;20344;-86
2023/04/20 16:25:21;;;;;;;;;;;;;;;;;;4993400;28;19918;-84
2023/04/20 16:27:46;;;;;;;;;;;;;;;;;;5024595;28;19964;-85
2023/04/20 16:30:12;;;;;;;;;;;;;;;;;;4994539;28;19914;-84
2023/04/20 16:32:37;;;;;;;;;;;;;;;;;;4996213;28;19914;-83
2023/04/20 16:35:02;;;;;;;;;;;;;;;;;;4995338;28;19909;-82
2023/04/20 16:37:32;;;;;;;;;;;;;;;;;;4999195;28;19913;-83